createdAt,value
2018-09-17T00:02:26.607Z,64.20
2018-09-17T00:04:54.682Z,64.90
2018-09-17T00:07:22.759Z,64.80
2018-09-17T00:09:50.883Z,64.30
2018-09-17T00:12:18.962Z,64.90
2018-09-17T00:14:47.038Z,64.80
2018-09-17T00:17:15.142Z,64.80
2018-09-17T00:19:43.267Z,64.80
2018-09-17T00:22:11.339Z,64.70
2018-09-17T00:24:39.662Z,63.90
2018-09-17T00:27:07.797Z,63.90
2018-09-17T00:29:35.863Z,64.60
2018-09-17T00:32:03.934Z,64.70
2018-09-17T00:34:32.220Z,64.70
2018-09-17T00:37:00.307Z,64.70
2018-09-17T00:39:28.380Z,64.80
2018-09-17T00:41:56.474Z,64.80
2018-09-17T00:44:24.546Z,64.70
2018-09-17T00:46:52.611Z,64.30
2018-09-17T00:49:20.707Z,64.50
2018-09-17T00:51:48.779Z,65.10
2018-09-17T00:54:16.870Z,65.00
2018-09-17T00:56:44.959Z,64.40
2018-09-17T00:59:13.029Z,64.20
2018-09-17T01:01:41.417Z,65.20
2018-09-17T01:04:09.470Z,65.20
2018-09-17T01:06:37.595Z,65.20
2018-09-17T01:09:06.207Z,65.20
2018-09-17T01:11:34.326Z,65.30
2018-09-17T01:14:02.391Z,64.40
2018-09-17T01:16:30.503Z,64.50
2018-09-17T01:18:58.636Z,65.40
2018-09-17T01:21:26.702Z,65.70
2018-09-17T01:23:54.783Z,65.70
2018-09-17T01:26:22.855Z,65.80
2018-09-17T01:28:50.956Z,66.20
2018-09-17T01:31:19.047Z,66.10
2018-09-17T01:33:47.239Z,66.40
2018-09-17T01:36:15.318Z,65.80
2018-09-17T01:38:43.430Z,66.30
2018-09-17T01:41:11.505Z,66.20
2018-09-17T01:43:39.570Z,66.40
2018-09-17T01:46:07.691Z,67.00
2018-09-17T01:48:35.710Z,67.00
2018-09-17T01:51:03.886Z,66.00
2018-09-17T01:53:31.958Z,67.00
2018-09-17T01:56:00.379Z,66.90
2018-09-17T01:58:28.475Z,67.10
2018-09-17T02:00:56.574Z,67.00
2018-09-17T02:03:24.642Z,66.90
2018-09-17T02:05:52.743Z,66.90
2018-09-17T02:08:20.846Z,66.70
2018-09-17T02:10:48.923Z,68.20
2018-09-17T02:13:16.981Z,68.00
2018-09-17T02:15:45.035Z,67.00
2018-09-17T02:18:13.106Z,67.70
2018-09-17T02:20:41.174Z,67.40
2018-09-17T02:23:09.248Z,67.20
2018-09-17T02:25:37.373Z,67.10
2018-09-17T02:28:05.714Z,67.10
2018-09-17T02:30:33.815Z,67.10
2018-09-17T02:33:01.870Z,67.20
2018-09-17T02:35:29.985Z,67.20
2018-09-17T02:37:58.058Z,67.30
2018-09-17T02:40:26.138Z,68.60
2018-09-17T02:42:54.249Z,68.00
2018-09-17T02:45:22.323Z,68.10
2018-09-17T02:47:50.387Z,68.40
2018-09-17T02:50:18.477Z,68.50
2018-09-17T02:52:46.547Z,68.60
2018-09-17T02:55:14.632Z,68.70
2018-09-17T02:57:42.799Z,68.80
2018-09-17T03:00:10.894Z,68.90
2018-09-17T03:02:39.297Z,68.80
2018-09-17T03:05:07.842Z,69.00
2018-09-17T03:07:35.911Z,69.10
2018-09-17T03:10:03.995Z,68.40
2018-09-17T03:12:32.110Z,69.10
2018-09-17T03:15:10.327Z,68.90
2018-09-17T03:17:38.423Z,69.20
2018-09-17T03:20:06.506Z,68.30
2018-09-17T03:22:34.625Z,69.20
2018-09-17T03:25:02.727Z,69.40
2018-09-17T03:27:30.874Z,69.40
2018-09-17T03:29:58.942Z,70.80
2018-09-17T03:32:27.010Z,70.50
2018-09-17T03:34:55.078Z,70.40
2018-09-17T03:37:26.092Z,70.20
2018-09-17T03:39:54.325Z,69.70
2018-09-17T03:42:22.447Z,69.50
2018-09-17T03:44:50.526Z,68.40
2018-09-17T03:47:18.606Z,69.40
2018-09-17T03:49:46.669Z,69.50
2018-09-17T03:52:14.738Z,69.30
2018-09-17T03:54:42.900Z,69.30
2018-09-17T03:57:11.006Z,69.30
2018-09-17T03:59:39.099Z,69.10
2018-09-17T04:02:07.177Z,69.10
2018-09-17T04:04:35.273Z,68.70
2018-09-17T04:07:03.346Z,68.70
2018-09-17T04:09:31.467Z,68.90
2018-09-17T04:11:59.522Z,68.20
2018-09-17T04:14:27.628Z,69.10
2018-09-17T04:16:55.699Z,70.00
2018-09-17T04:19:23.806Z,69.20
2018-09-17T04:21:52.087Z,69.00
2018-09-17T04:24:20.157Z,69.10
2018-09-17T04:26:48.259Z,69.20
2018-09-17T04:29:16.349Z,69.10
2018-09-17T04:31:44.469Z,69.10
2018-09-17T04:34:12.539Z,69.10
2018-09-17T04:36:40.600Z,69.00
2018-09-17T04:39:10.347Z,69.00
2018-09-17T04:41:38.448Z,68.00
2018-09-17T04:44:06.600Z,68.90
2018-09-17T04:46:34.698Z,68.90
2018-09-17T04:49:02.819Z,68.90
2018-09-17T04:51:30.922Z,68.90
2018-09-17T04:53:59.012Z,69.00
2018-09-17T04:56:27.098Z,69.00
2018-09-17T04:58:55.172Z,69.30
2018-09-17T05:01:23.278Z,69.20
2018-09-17T05:03:51.347Z,69.40
2018-09-17T05:06:19.715Z,69.20
2018-09-17T05:08:47.786Z,69.00
2018-09-17T05:11:15.876Z,69.40
2018-09-17T05:13:44.027Z,69.50
2018-09-17T05:16:12.100Z,69.40
2018-09-17T05:18:40.176Z,69.80
2018-09-17T05:21:08.315Z,70.10
2018-09-17T05:23:36.484Z,70.40
2018-09-17T05:26:04.592Z,70.50
2018-09-17T05:28:32.670Z,70.90
2018-09-17T05:31:00.769Z,70.70
2018-09-17T05:33:28.871Z,71.10
2018-09-17T05:35:56.984Z,71.00
2018-09-17T05:38:25.164Z,71.40
2018-09-17T05:40:53.257Z,71.60
2018-09-17T05:43:21.337Z,71.60
2018-09-17T05:45:49.444Z,71.80
2018-09-17T05:48:17.551Z,71.80
2018-09-17T05:50:45.715Z,71.80
2018-09-17T05:53:13.822Z,72.10
2018-09-17T05:55:41.922Z,72.00
2018-09-17T05:58:10.015Z,72.20
2018-09-17T06:00:38.133Z,72.40
2018-09-17T06:03:06.216Z,72.40
2018-09-17T06:05:34.330Z,72.50
2018-09-17T06:08:02.410Z,72.70
2018-09-17T06:10:30.502Z,72.90
2018-09-17T06:12:58.574Z,72.80
2018-09-17T06:15:26.679Z,72.90
2018-09-17T06:17:54.756Z,72.90
2018-09-17T06:20:22.846Z,73.30
2018-09-17T06:22:50.968Z,72.70
2018-09-17T06:25:19.128Z,73.30
2018-09-17T06:27:47.227Z,73.40
2018-09-17T06:30:15.307Z,73.40
2018-09-17T06:32:43.505Z,74.10
2018-09-17T06:35:11.611Z,73.20
2018-09-17T06:37:39.800Z,73.40
2018-09-17T06:40:07.938Z,73.40
2018-09-17T06:42:36.022Z,73.30
2018-09-17T06:45:04.199Z,73.30
2018-09-17T06:47:32.207Z,72.90
2018-09-17T06:50:00.303Z,72.80
2018-09-17T06:52:28.419Z,72.50
2018-09-17T06:54:56.495Z,72.60
2018-09-17T06:57:24.599Z,72.70
2018-09-17T06:59:52.675Z,72.40
2018-09-17T07:02:20.769Z,72.60
2018-09-17T07:04:48.868Z,72.30
2018-09-17T07:07:16.938Z,73.30
2018-09-17T07:09:45.083Z,72.40
2018-09-17T07:12:13.170Z,72.30
2018-09-17T07:14:41.292Z,72.20
2018-09-17T07:17:09.364Z,72.50
2018-09-17T07:19:37.464Z,72.10
2018-09-17T07:22:05.547Z,72.30
2018-09-17T07:24:33.634Z,72.20
2018-09-17T07:27:01.763Z,71.90
2018-09-17T07:29:29.904Z,72.20
2018-09-17T07:31:58.071Z,72.00
2018-09-17T07:34:26.165Z,71.80
2018-09-17T07:36:54.255Z,71.80
2018-09-17T07:39:22.339Z,71.60
2018-09-17T07:41:50.419Z,71.40
2018-09-17T07:44:18.490Z,71.30
2018-09-17T07:46:46.606Z,71.90
2018-09-17T07:49:14.712Z,71.30
2018-09-17T07:51:42.967Z,71.10
2018-09-17T07:54:11.039Z,71.30
2018-09-17T07:56:39.131Z,71.30
2018-09-17T07:59:07.199Z,71.20
2018-09-17T08:01:35.316Z,71.10
2018-09-17T08:04:03.463Z,71.80
2018-09-17T08:06:31.587Z,70.70
2018-09-17T08:08:59.794Z,70.20
2018-09-17T08:11:27.965Z,70.00
2018-09-17T08:13:56.165Z,69.80
2018-09-17T08:16:24.283Z,69.40
2018-09-17T08:18:52.451Z,69.60
2018-09-17T08:21:20.665Z,69.70
2018-09-17T08:23:48.743Z,69.40
2018-09-17T08:26:16.855Z,68.80
2018-09-17T08:28:44.968Z,68.60
2018-09-17T08:31:13.099Z,68.30
2018-09-17T08:33:41.686Z,68.70
2018-09-17T08:36:09.847Z,68.50
2018-09-17T08:38:38.088Z,67.80
2018-09-17T08:41:06.299Z,67.70
2018-09-17T08:43:35.252Z,67.30
2018-09-17T08:46:03.337Z,67.30
2018-09-17T08:48:31.485Z,66.50
2018-09-17T08:50:59.599Z,67.00
2018-09-17T08:53:27.718Z,66.60
2018-09-17T08:55:59.810Z,66.50
2018-09-17T08:58:33.135Z,66.30
2018-09-17T09:01:02.738Z,66.40
2018-09-17T09:07:15.376Z,66.20
2018-09-17T09:09:48.709Z,65.40
2018-09-17T09:12:30.934Z,65.30
2018-09-17T09:17:55.412Z,65.40
2018-09-17T09:20:25.888Z,65.50
2018-09-17T09:23:02.396Z,64.00
2018-09-17T09:25:37.627Z,64.50
2018-09-17T09:28:10.213Z,64.10
2018-09-17T09:30:38.341Z,64.50
2018-09-17T09:33:06.454Z,64.80
2018-09-17T09:35:34.551Z,64.20
2018-09-17T09:38:02.768Z,64.30
2018-09-17T09:40:30.876Z,64.30
2018-09-17T09:42:59.010Z,63.40
2018-09-17T09:45:27.092Z,63.00
2018-09-17T09:47:55.188Z,62.60
2018-09-17T09:50:23.278Z,62.60
2018-09-17T09:52:51.441Z,62.10
2018-09-17T09:55:19.535Z,62.00
2018-09-17T09:57:47.621Z,62.30
2018-09-17T10:00:21.107Z,62.00
2018-09-17T10:02:54.571Z,61.30
2018-09-17T10:05:22.827Z,61.90
2018-09-17T10:07:52.098Z,60.90
2018-09-17T10:10:25.757Z,60.80
2018-09-17T10:12:59.267Z,60.00
2018-09-17T10:15:32.828Z,60.30
2018-09-17T10:18:06.458Z,60.00
2018-09-17T10:20:34.596Z,59.90
2018-09-17T10:23:02.702Z,59.50
2018-09-17T10:25:30.776Z,59.10
2018-09-17T10:27:58.895Z,58.70
2018-09-17T10:30:26.979Z,58.40
2018-09-17T10:32:55.074Z,58.60
2018-09-17T10:35:23.195Z,58.60
2018-09-17T10:37:51.357Z,59.20
2018-09-17T10:40:19.515Z,58.30
2018-09-17T10:42:47.627Z,58.20
2018-09-17T10:45:15.915Z,58.00
2018-09-17T10:47:44.243Z,58.30
2018-09-17T10:50:12.459Z,58.20
2018-09-17T10:52:41.023Z,58.10
2018-09-17T10:55:09.112Z,57.90
2018-09-17T10:57:37.376Z,57.70
2018-09-17T11:00:05.481Z,57.30
2018-09-17T11:02:33.586Z,57.10
2018-09-17T11:05:01.775Z,57.00
2018-09-17T11:07:29.877Z,57.10
2018-09-17T11:09:58.011Z,56.90
2018-09-17T11:12:26.237Z,56.00
2018-09-17T11:14:54.338Z,56.10
2018-09-17T11:17:22.445Z,55.90
2018-09-17T11:19:50.543Z,55.80
2018-09-17T11:22:21.975Z,55.30
2018-09-17T11:24:58.533Z,55.00
2018-09-17T11:27:26.684Z,54.60
2018-09-17T11:30:12.067Z,54.10
2018-09-17T11:32:40.172Z,54.50
2018-09-17T11:35:08.267Z,54.80
2018-09-17T11:37:36.600Z,54.80
2018-09-17T11:40:04.740Z,54.70
2018-09-17T11:42:32.863Z,54.60
2018-09-17T11:45:01.907Z,54.50
2018-09-17T11:47:30.104Z,55.40
2018-09-17T11:49:58.928Z,54.50
2018-09-17T11:52:27.040Z,54.10
2018-09-17T11:54:55.172Z,54.70
2018-09-17T11:57:23.254Z,54.40
2018-09-17T11:59:51.465Z,53.60
2018-09-17T12:02:26.976Z,53.60
2018-09-17T12:04:59.111Z,53.00
2018-09-17T12:07:33.884Z,52.40
2018-09-17T12:10:02.061Z,52.30
2018-09-17T12:12:40.660Z,51.70
2018-09-17T12:15:09.419Z,51.40
2018-09-17T12:17:37.546Z,52.20
2018-09-17T12:20:07.081Z,51.70
2018-09-17T12:23:07.166Z,51.60
2018-09-17T12:25:35.528Z,51.00
2018-09-17T12:28:04.044Z,51.70
2018-09-17T12:30:32.257Z,50.80
2018-09-17T12:33:00.798Z,51.00
2018-09-17T12:35:29.755Z,50.50
2018-09-17T12:37:58.731Z,50.50
2018-09-17T12:40:36.552Z,50.60
2018-09-17T12:43:04.898Z,48.60
2018-09-17T12:45:33.037Z,49.20
2018-09-17T12:48:06.780Z,50.50
2018-09-17T12:50:34.870Z,49.30
2018-09-17T12:53:02.979Z,49.60
2018-09-17T12:55:31.123Z,49.90
2018-09-17T12:57:59.284Z,48.90
2018-09-17T13:00:41.268Z,49.40
2018-09-17T13:03:09.407Z,48.80
2018-09-17T13:05:39.738Z,48.90
2018-09-17T13:08:08.761Z,48.30
2018-09-17T13:10:41.657Z,48.40
2018-09-17T13:13:12.911Z,49.10
2018-09-17T13:15:46.356Z,46.10
2018-09-17T13:18:14.450Z,48.30
2018-09-17T13:20:42.723Z,48.40
2018-09-17T13:23:10.992Z,48.70
2018-09-17T13:25:39.127Z,49.30
2018-09-17T13:28:10.511Z,48.80
2018-09-17T13:30:38.628Z,48.10
2018-09-17T13:33:06.726Z,47.50
2018-09-17T13:35:34.838Z,47.90
2018-09-17T13:38:03.101Z,47.40
2018-09-17T13:40:31.187Z,46.90
2018-09-17T13:42:59.390Z,47.10
2018-09-17T13:45:27.691Z,47.60
2018-09-17T13:47:55.826Z,47.10
2018-09-17T13:50:23.899Z,47.10
2018-09-17T13:52:52.010Z,47.20
2018-09-17T13:55:22.066Z,46.60
2018-09-17T13:57:50.491Z,46.70
2018-09-17T14:00:18.704Z,47.60
2018-09-17T14:02:46.901Z,46.80
2018-09-17T14:05:15.072Z,46.20
2018-09-17T14:07:43.294Z,46.50
2018-09-17T14:10:11.427Z,45.40
2018-09-17T14:12:39.547Z,44.90
2018-09-17T14:15:07.680Z,45.90
2018-09-17T14:17:35.789Z,45.30
2018-09-17T14:20:03.919Z,45.70
2018-09-17T14:22:32.019Z,45.00
2018-09-17T14:25:00.091Z,44.50
2018-09-17T14:27:28.176Z,44.40
2018-09-17T14:29:56.304Z,44.20
2018-09-17T14:32:29.931Z,44.40
2018-09-17T14:34:58.071Z,44.00
2018-09-17T14:37:26.178Z,43.60
2018-09-17T14:39:58.252Z,42.10
2018-09-17T14:42:26.419Z,42.50
2018-09-17T14:44:54.495Z,42.70
2018-09-17T14:47:22.624Z,42.70
2018-09-17T14:49:50.766Z,42.90
2018-09-17T14:52:18.891Z,43.00
2018-09-17T14:54:47.041Z,42.90
2018-09-17T14:57:15.259Z,43.00
2018-09-17T14:59:43.300Z,42.50
2018-09-17T15:02:11.411Z,42.20
2018-09-17T15:04:39.788Z,42.10
2018-09-17T15:07:07.899Z,42.00
2018-09-17T15:09:35.984Z,41.80
2018-09-17T15:12:04.132Z,41.90
2018-09-17T15:14:32.195Z,41.50
2018-09-17T15:17:00.311Z,40.50
2018-09-17T15:19:28.421Z,41.00
2018-09-17T15:21:56.569Z,40.80
2018-09-17T15:24:24.810Z,41.20
2018-09-17T15:26:53.051Z,40.70
2018-09-17T15:29:21.277Z,40.00
2018-09-17T15:31:49.541Z,41.40
2018-09-17T15:34:17.721Z,41.30
2018-09-17T15:36:46.154Z,41.50
2018-09-17T15:39:14.905Z,41.00
2018-09-17T15:41:43.008Z,41.10
2018-09-17T15:44:11.637Z,41.30
2018-09-17T15:46:39.737Z,41.30
2018-09-17T15:49:07.911Z,41.40
2018-09-17T15:51:36.001Z,41.60
2018-09-17T15:54:04.081Z,41.60
2018-09-17T15:56:32.215Z,41.90
2018-09-17T15:59:00.369Z,41.90
2018-09-17T16:01:28.482Z,41.90
2018-09-17T16:03:56.879Z,42.30
2018-09-17T16:06:25.001Z,42.00
2018-09-17T16:08:53.119Z,42.60
2018-09-17T16:11:21.278Z,42.80
2018-09-17T16:13:49.401Z,43.30
2018-09-17T16:16:17.523Z,42.70
2018-09-17T16:18:45.627Z,42.20
2018-09-17T16:21:13.783Z,42.10
2018-09-17T16:23:41.864Z,42.20
2018-09-17T16:26:10.143Z,42.30
2018-09-17T16:28:38.499Z,42.10
2018-09-17T16:31:07.148Z,42.40
2018-09-17T16:33:36.508Z,42.10
2018-09-17T16:36:04.607Z,42.20
2018-09-17T16:38:32.750Z,42.80
2018-09-17T16:41:00.957Z,43.40
2018-09-17T16:43:29.114Z,43.10
2018-09-17T16:45:58.488Z,43.20
2018-09-17T16:48:26.712Z,43.70
2018-09-17T16:50:54.845Z,44.20
2018-09-17T16:53:23.220Z,44.10
2018-09-17T16:55:51.296Z,43.60
2018-09-17T16:58:19.440Z,44.10
2018-09-17T17:00:47.527Z,44.50
2018-09-17T17:03:16.215Z,44.10
2018-09-17T17:05:44.312Z,44.70
2018-09-17T17:08:12.358Z,45.10
2018-09-17T17:10:40.556Z,45.50
2018-09-17T17:13:08.907Z,44.70
2018-09-17T17:15:37.129Z,44.40
2018-09-17T17:18:05.573Z,45.10
2018-09-17T17:20:33.639Z,45.50
2018-09-17T17:23:01.751Z,45.70
2018-09-17T17:25:29.944Z,45.90
2018-09-17T17:27:58.160Z,46.00
2018-09-17T17:30:26.223Z,46.00
2018-09-17T17:32:54.326Z,46.00
2018-09-17T17:35:22.425Z,46.20
2018-09-17T17:37:50.532Z,46.40
2018-09-17T17:40:18.714Z,46.80
2018-09-17T17:42:46.764Z,47.00
2018-09-17T17:45:14.922Z,47.50
2018-09-17T17:47:43.027Z,47.20
2018-09-17T17:50:11.153Z,48.10
2018-09-17T17:52:39.256Z,47.80
2018-09-17T17:55:07.356Z,47.90
2018-09-17T17:57:35.501Z,48.40
2018-09-17T18:00:06.483Z,48.70
2018-09-17T18:02:34.595Z,48.90
2018-09-17T18:05:02.717Z,49.30
2018-09-17T18:07:30.924Z,49.40
2018-09-17T18:09:59.005Z,49.70
2018-09-17T18:12:27.263Z,50.00
2018-09-17T18:14:55.368Z,50.20
2018-09-17T18:17:23.499Z,50.50
2018-09-17T18:19:51.604Z,50.60
2018-09-17T18:22:20.211Z,50.90
2018-09-17T18:24:48.308Z,51.10
2018-09-17T18:27:16.566Z,51.40
2018-09-17T18:29:44.656Z,51.50
2018-09-17T18:32:12.759Z,51.80
2018-09-17T18:34:40.914Z,52.00
2018-09-17T18:37:09.037Z,52.30
2018-09-17T18:39:37.286Z,52.50
2018-09-17T18:42:05.505Z,53.10
2018-09-17T18:44:33.616Z,53.10
2018-09-17T18:47:02.027Z,53.40
2018-09-17T18:49:30.215Z,53.60
2018-09-17T18:51:58.329Z,53.80
2018-09-17T18:54:26.441Z,54.20
2018-09-17T18:56:54.597Z,54.10
2018-09-17T18:59:22.615Z,54.20
2018-09-17T19:01:50.716Z,54.50
2018-09-17T19:04:18.843Z,54.60
2018-09-17T19:06:46.985Z,54.70
2018-09-17T19:09:15.207Z,54.80
2018-09-17T19:11:43.437Z,55.00
2018-09-17T19:14:17.075Z,55.90
2018-09-17T19:16:49.327Z,55.70
2018-09-17T19:19:17.520Z,55.70
2018-09-17T19:21:51.536Z,55.70
2018-09-17T19:24:19.575Z,55.70
2018-09-17T19:26:47.631Z,55.80
2018-09-17T19:29:16.110Z,56.50
2018-09-17T19:31:44.254Z,56.00
2018-09-17T19:34:12.377Z,56.10
2018-09-17T19:36:40.517Z,56.10
2018-09-17T19:39:14.032Z,56.30
2018-09-17T19:41:42.925Z,56.20
2018-09-17T19:44:11.097Z,56.40
2018-09-17T19:46:39.186Z,56.40
2018-09-17T19:49:07.337Z,56.40
2018-09-17T19:51:40.767Z,56.40
2018-09-17T19:54:08.965Z,56.50
2018-09-17T19:56:37.051Z,56.70
2018-09-17T19:59:10.641Z,57.50
2018-09-17T20:01:38.781Z,57.40
2018-09-17T20:04:12.382Z,57.10
2018-09-17T20:06:40.504Z,57.30
2018-09-17T20:09:09.787Z,57.50
2018-09-17T20:11:38.172Z,57.90
2018-09-17T20:14:06.346Z,58.10
2018-09-17T20:16:34.448Z,58.10
2018-09-17T20:19:02.576Z,58.20
2018-09-17T20:21:30.662Z,58.40
2018-09-17T20:23:58.790Z,58.40
2018-09-17T20:26:27.046Z,58.60
2018-09-17T20:28:55.143Z,58.60
2018-09-17T20:31:23.253Z,58.70
2018-09-17T20:33:51.326Z,58.90
2018-09-17T20:36:19.431Z,58.90
2018-09-17T20:38:47.703Z,59.30
2018-09-17T20:41:15.757Z,58.10
2018-09-17T20:43:43.881Z,59.10
2018-09-17T20:46:12.076Z,59.00
2018-09-17T20:48:40.275Z,59.00
2018-09-17T20:51:08.372Z,59.00
2018-09-17T20:53:36.565Z,59.20
2018-09-17T20:56:04.798Z,59.20
2018-09-17T20:58:33.093Z,59.30
2018-09-17T21:01:01.399Z,59.20
2018-09-17T21:03:29.491Z,59.30
2018-09-17T21:05:57.631Z,59.30
2018-09-17T21:08:25.821Z,59.40
2018-09-17T21:10:53.906Z,59.20
2018-09-17T21:13:22.034Z,59.60
2018-09-17T21:15:50.133Z,59.60
2018-09-17T21:18:18.337Z,59.50
2018-09-17T21:20:46.399Z,59.60
2018-09-17T21:23:14.580Z,59.60
2018-09-17T21:25:42.663Z,59.70
2018-09-17T21:28:10.777Z,60.10
2018-09-17T21:30:38.883Z,59.90
2018-09-17T21:33:06.988Z,60.00
2018-09-17T21:35:35.072Z,60.00
2018-09-17T21:38:03.172Z,59.90
2018-09-17T21:40:31.324Z,60.70
2018-09-17T21:42:59.674Z,59.90
2018-09-17T21:45:27.532Z,60.00
2018-09-17T21:47:55.809Z,60.00
2018-09-17T21:50:23.884Z,60.00
2018-09-17T21:52:51.960Z,60.00
2018-09-17T21:55:20.486Z,60.00
2018-09-17T21:57:48.554Z,59.70
2018-09-17T22:00:21.956Z,59.90
2018-09-17T22:02:50.883Z,59.80
2018-09-17T22:05:19.007Z,59.90
2018-09-17T22:07:48.350Z,59.90
2018-09-17T22:10:17.030Z,58.90
2018-09-17T22:12:48.070Z,59.60
2018-09-17T22:15:19.589Z,59.30
2018-09-17T22:17:48.100Z,59.40
2018-09-17T22:20:16.218Z,60.20
2018-09-17T22:22:45.204Z,60.30
2018-09-17T22:25:13.262Z,60.20
2018-09-17T22:27:41.382Z,60.30
2018-09-17T22:30:09.562Z,60.50
2018-09-17T22:32:37.638Z,60.40
2018-09-17T22:35:05.778Z,60.50
2018-09-17T22:37:34.370Z,60.60
2018-09-17T22:40:02.434Z,60.90
2018-09-17T22:42:31.026Z,60.80
2018-09-17T22:44:59.194Z,60.80
2018-09-17T22:47:27.302Z,60.70
2018-09-17T22:49:55.439Z,61.00
2018-09-17T22:52:23.750Z,61.00
2018-09-17T22:54:51.854Z,60.90
2018-09-17T22:57:19.926Z,60.90
2018-09-17T22:59:48.013Z,61.00
2018-09-17T23:02:16.099Z,61.10
2018-09-17T23:04:44.174Z,61.00
2018-09-17T23:07:12.350Z,61.20
2018-09-17T23:09:40.421Z,61.20
2018-09-17T23:12:08.516Z,61.00
2018-09-17T23:14:36.669Z,62.30
2018-09-17T23:17:04.741Z,62.20
2018-09-17T23:19:32.810Z,61.80
2018-09-17T23:22:01.000Z,61.70
2018-09-17T23:24:29.077Z,61.70
2018-09-17T23:26:57.157Z,61.60
2018-09-17T23:29:25.256Z,61.60
2018-09-17T23:31:53.352Z,61.70
2018-09-17T23:34:21.459Z,61.70
2018-09-17T23:36:49.604Z,61.50
2018-09-17T23:39:17.689Z,61.50
2018-09-17T23:41:45.772Z,61.70
2018-09-17T23:44:13.846Z,61.60
2018-09-17T23:46:41.915Z,61.70
2018-09-17T23:49:09.978Z,61.80
2018-09-17T23:51:38.090Z,61.70
2018-09-17T23:54:06.208Z,61.80
2018-09-17T23:56:34.308Z,61.90
2018-09-17T23:59:02.638Z,62.00
